sensor_id;sensor_type;location;lat;lon;timestamp;pressure;altitude;pressure_sealevel;temperature;humidity
34742;BME280;20968;42.696;23.360;2022-08-20T00:00:03;94860.81;;;26.30;48.90
34742;BME280;20968;42.696;23.360;2022-08-20T00:02:51;94872.94;;;26.50;48.80
34742;BME280;20968;42.696;23.360;2022-08-20T00:05:37;94876.09;;;26.54;48.11
34742;BME280;20968;42.696;23.360;2022-08-20T00:08:03;94879.50;;;26.62;48.39
34742;BME280;20968;42.696;23.360;2022-08-20T00:10:31;94874.03;;;26.73;48.26
34742;BME280;20968;42.696;23.360;2022-08-20T00:13:06;94873.84;;;26.62;48.08
34742;BME280;20968;42.696;23.360;2022-08-20T00:15:34;94869.50;;;26.42;48.80
34742;BME280;20968;42.696;23.360;2022-08-20T00:18:00;94860.16;;;26.49;48.79
34742;BME280;20968;42.696;23.360;2022-08-20T00:20:38;94872.34;;;26.51;48.65
34742;BME280;20968;42.696;23.360;2022-08-20T00:23:04;94867.59;;;26.54;48.68
34742;BME280;20968;42.696;23.360;2022-08-20T00:25:30;94874.00;;;26.54;48.25
34742;BME280;20968;42.696;23.360;2022-08-20T00:27:56;94863.84;;;26.42;48.48
34742;BME280;20968;42.696;23.360;2022-08-20T00:30:23;94869.75;;;26.36;49.23
34742;BME280;20968;42.696;23.360;2022-08-20T00:33:08;94867.34;;;26.33;49.07
34742;BME280;20968;42.696;23.360;2022-08-20T00:35:44;94868.22;;;26.26;49.56
34742;BME280;20968;42.696;23.360;2022-08-20T00:38:10;94865.41;;;26.35;49.33
34742;BME280;20968;42.696;23.360;2022-08-20T00:40:40;94864.84;;;26.37;49.22
34742;BME280;20968;42.696;23.360;2022-08-20T00:45:59;94857.59;;;26.43;49.24
34742;BME280;20968;42.696;23.360;2022-08-20T00:48:27;94861.66;;;26.23;49.52
34742;BME280;20968;42.696;23.360;2022-08-20T00:54:21;94858.44;;;26.36;49.57
34742;BME280;20968;42.696;23.360;2022-08-20T00:57:08;94856.34;;;26.27;49.13
34742;BME280;20968;42.696;23.360;2022-08-20T00:59:43;94849.16;;;26.17;49.94
34742;BME280;20968;42.696;23.360;2022-08-20T01:02:15;94846.75;;;26.13;49.73
34742;BME280;20968;42.696;23.360;2022-08-20T01:04:42;94847.81;;;26.18;49.14
34742;BME280;20968;42.696;23.360;2022-08-20T01:07:19;94850.50;;;26.16;49.36
34742;BME280;20968;42.696;23.360;2022-08-20T01:09:46;94846.13;;;26.05;50.02
34742;BME280;20968;42.696;23.360;2022-08-20T01:12:12;94838.09;;;26.02;49.90
34742;BME280;20968;42.696;23.360;2022-08-20T01:14:47;94834.06;;;25.96;50.29
34742;BME280;20968;42.696;23.360;2022-08-20T01:17:17;94839.09;;;25.88;50.56
34742;BME280;20968;42.696;23.360;2022-08-20T01:19:49;94829.56;;;25.83;50.67
34742;BME280;20968;42.696;23.360;2022-08-20T01:22:37;94825.16;;;25.73;50.98
34742;BME280;20968;42.696;23.360;2022-08-20T01:28:03;94827.00;;;25.78;50.65
34742;BME280;20968;42.696;23.360;2022-08-20T01:30:30;94835.66;;;25.89;50.31
34742;BME280;20968;42.696;23.360;2022-08-20T01:32:56;94828.91;;;25.75;50.82
34742;BME280;20968;42.696;23.360;2022-08-20T01:35:23;94822.63;;;25.67;51.42
34742;BME280;20968;42.696;23.360;2022-08-20T01:37:49;94817.56;;;25.66;51.26
34742;BME280;20968;42.696;23.360;2022-08-20T01:40:26;94828.78;;;25.83;50.90
34742;BME280;20968;42.696;23.360;2022-08-20T01:42:53;94829.44;;;25.91;50.87
34742;BME280;20968;42.696;23.360;2022-08-20T01:45:18;94825.97;;;25.83;50.20
34742;BME280;20968;42.696;23.360;2022-08-20T01:47:44;94820.31;;;25.83;50.13
34742;BME280;20968;42.696;23.360;2022-08-20T01:50:23;94820.66;;;25.87;50.51
34742;BME280;20968;42.696;23.360;2022-08-20T01:53:05;94814.69;;;25.83;50.72
34742;BME280;20968;42.696;23.360;2022-08-20T01:55:35;94808.56;;;25.77;51.27
34742;BME280;20968;42.696;23.360;2022-08-20T02:01:39;94807.59;;;25.65;51.26
34742;BME280;20968;42.696;23.360;2022-08-20T02:04:08;94808.56;;;25.77;50.98
34742;BME280;20968;42.696;23.360;2022-08-20T02:06:43;94805.94;;;25.88;50.66
34742;BME280;20968;42.696;23.360;2022-08-20T02:09:09;94803.88;;;25.89;50.50
34742;BME280;20968;42.696;23.360;2022-08-20T02:11:36;94801.75;;;25.80;50.82
34742;BME280;20968;42.696;23.360;2022-08-20T02:14:12;94805.69;;;25.67;51.07
34742;BME280;20968;42.696;23.360;2022-08-20T02:16:43;94814.41;;;25.62;51.23
34742;BME280;20968;42.696;23.360;2022-08-20T02:19:19;94814.63;;;25.73;51.25
34742;BME280;20968;42.696;23.360;2022-08-20T02:21:49;94805.25;;;25.71;51.33
34742;BME280;20968;42.696;23.360;2022-08-20T02:24:17;94800.69;;;25.75;51.48
34742;BME280;20968;42.696;23.360;2022-08-20T02:26:44;94805.03;;;25.76;51.53
34742;BME280;20968;42.696;23.360;2022-08-20T02:29:11;94811.41;;;25.77;51.88
34742;BME280;20968;42.696;23.360;2022-08-20T02:31:38;94810.22;;;25.80;51.27
34742;BME280;20968;42.696;23.360;2022-08-20T02:34:07;94801.06;;;25.89;51.30
34742;BME280;20968;42.696;23.360;2022-08-20T02:36:34;94808.09;;;26.06;50.91
34742;BME280;20968;42.696;23.360;2022-08-20T02:39:06;94800.94;;;26.05;50.65
34742;BME280;20968;42.696;23.360;2022-08-20T02:41:34;94801.97;;;25.91;51.05
34742;BME280;20968;42.696;23.360;2022-08-20T02:43:59;94811.06;;;25.99;50.83
34742;BME280;20968;42.696;23.360;2022-08-20T02:46:25;94814.41;;;25.88;51.22
34742;BME280;20968;42.696;23.360;2022-08-20T02:51:20;94799.41;;;25.59;52.00
34742;BME280;20968;42.696;23.360;2022-08-20T02:53:46;94797.53;;;25.45;52.42
34742;BME280;20968;42.696;23.360;2022-08-20T02:56:11;94808.34;;;25.39;52.19
34742;BME280;20968;42.696;23.360;2022-08-20T02:58:44;94813.34;;;25.31;52.62
34742;BME280;20968;42.696;23.360;2022-08-20T03:01:13;94819.00;;;25.14;53.22
34742;BME280;20968;42.696;23.360;2022-08-20T03:03:55;94821.41;;;25.01;53.37
34742;BME280;20968;42.696;23.360;2022-08-20T03:06:24;94816.50;;;24.84;53.93
34742;BME280;20968;42.696;23.360;2022-08-20T03:08:50;94809.22;;;24.64;54.58
34742;BME280;20968;42.696;23.360;2022-08-20T03:11:16;94828.97;;;24.64;54.67
34742;BME280;20968;42.696;23.360;2022-08-20T03:13:45;94832.50;;;24.65;54.75
34742;BME280;20968;42.696;23.360;2022-08-20T03:16:45;94826.06;;;24.55;55.19
34742;BME280;20968;42.696;23.360;2022-08-20T03:19:10;94814.53;;;24.60;55.25
34742;BME280;20968;42.696;23.360;2022-08-20T03:21:38;94817.94;;;24.59;54.81
34742;BME280;20968;42.696;23.360;2022-08-20T03:24:03;94819.41;;;24.43;55.12
34742;BME280;20968;42.696;23.360;2022-08-20T03:26:28;94812.50;;;24.36;55.77
34742;BME280;20968;42.696;23.360;2022-08-20T03:28:57;94819.00;;;24.63;55.35
34742;BME280;20968;42.696;23.360;2022-08-20T03:31:23;94816.63;;;24.77;54.66
34742;BME280;20968;42.696;23.360;2022-08-20T03:33:54;94820.50;;;24.81;55.05
34742;BME280;20968;42.696;23.360;2022-08-20T03:36:24;94812.72;;;24.89;54.60
34742;BME280;20968;42.696;23.360;2022-08-20T03:38:50;94818.78;;;24.86;54.70
34742;BME280;20968;42.696;23.360;2022-08-20T03:41:15;94810.81;;;24.92;54.68
34742;BME280;20968;42.696;23.360;2022-08-20T03:44:07;94821.13;;;25.06;54.62
34742;BME280;20968;42.696;23.360;2022-08-20T03:46:33;94830.13;;;25.12;53.95
34742;BME280;20968;42.696;23.360;2022-08-20T03:48:58;94831.53;;;25.20;53.67
34742;BME280;20968;42.696;23.360;2022-08-20T03:51:23;94831.09;;;25.24;53.92
34742;BME280;20968;42.696;23.360;2022-08-20T03:53:52;94838.72;;;25.31;53.93
34742;BME280;20968;42.696;23.360;2022-08-20T03:56:18;94827.28;;;25.29;53.46
34742;BME280;20968;42.696;23.360;2022-08-20T03:58:43;94826.75;;;25.40;53.54
34742;BME280;20968;42.696;23.360;2022-08-20T04:01:08;94839.84;;;25.45;53.58
34742;BME280;20968;42.696;23.360;2022-08-20T04:03:34;94834.28;;;25.54;53.06
34742;BME280;20968;42.696;23.360;2022-08-20T04:06:00;94838.09;;;25.49;52.99
34742;BME280;20968;42.696;23.360;2022-08-20T04:08:26;94839.09;;;25.44;53.41
34742;BME280;20968;42.696;23.360;2022-08-20T04:10:54;94837.13;;;25.37;53.89
34742;BME280;20968;42.696;23.360;2022-08-20T04:13:23;94829.59;;;25.23;53.68
34742;BME280;20968;42.696;23.360;2022-08-20T04:15:50;94832.19;;;25.12;54.46
34742;BME280;20968;42.696;23.360;2022-08-20T04:18:19;94837.00;;;25.02;54.69
34742;BME280;20968;42.696;23.360;2022-08-20T04:20:49;94838.91;;;25.16;54.10
34742;BME280;20968;42.696;23.360;2022-08-20T04:23:14;94829.28;;;25.19;54.15
34742;BME280;20968;42.696;23.360;2022-08-20T04:25:45;94841.72;;;25.33;54.27
34742;BME280;20968;42.696;23.360;2022-08-20T04:28:17;94841.13;;;25.34;54.15
34742;BME280;20968;42.696;23.360;2022-08-20T04:30:57;94832.09;;;25.36;53.78
34742;BME280;20968;42.696;23.360;2022-08-20T04:33:24;94829.56;;;25.40;53.69
34742;BME280;20968;42.696;23.360;2022-08-20T04:35:52;94833.44;;;25.18;54.17
34742;BME280;20968;42.696;23.360;2022-08-20T04:38:19;94849.38;;;25.49;54.39
34742;BME280;20968;42.696;23.360;2022-08-20T04:40:51;94841.25;;;25.53;54.29
34742;BME280;20968;42.696;23.360;2022-08-20T04:43:25;94838.38;;;25.70;53.09
34742;BME280;20968;42.696;23.360;2022-08-20T04:45:52;94837.13;;;25.81;53.02
34742;BME280;20968;42.696;23.360;2022-08-20T04:48:19;94842.97;;;25.92;53.02
34742;BME280;20968;42.696;23.360;2022-08-20T04:50:56;94842.56;;;26.05;53.15
34742;BME280;20968;42.696;23.360;2022-08-20T04:53:23;94839.81;;;26.24;52.24
34742;BME280;20968;42.696;23.360;2022-08-20T04:55:58;94844.50;;;26.38;51.94
34742;BME280;20968;42.696;23.360;2022-08-20T04:58:33;94849.44;;;26.47;51.71
34742;BME280;20968;42.696;23.360;2022-08-20T05:01:20;94855.09;;;26.57;51.72
34742;BME280;20968;42.696;23.360;2022-08-20T05:03:48;94840.97;;;26.66;51.43
34742;BME280;20968;42.696;23.360;2022-08-20T05:06:15;94846.22;;;26.79;51.46
34742;BME280;20968;42.696;23.360;2022-08-20T05:08:42;94848.19;;;26.86;51.34
34742;BME280;20968;42.696;23.360;2022-08-20T05:11:08;94848.00;;;26.84;51.04
34742;BME280;20968;42.696;23.360;2022-08-20T05:13:34;94848.47;;;26.90;51.47
34742;BME280;20968;42.696;23.360;2022-08-20T05:16:00;94852.34;;;26.85;51.10
34742;BME280;20968;42.696;23.360;2022-08-20T05:18:27;94855.59;;;26.91;51.50
34742;BME280;20968;42.696;23.360;2022-08-20T05:20:53;94845.13;;;26.56;51.96
34742;BME280;20968;42.696;23.360;2022-08-20T05:23:19;94846.78;;;26.59;51.95
34742;BME280;20968;42.696;23.360;2022-08-20T05:25:47;94835.66;;;26.70;52.48
34742;BME280;20968;42.696;23.360;2022-08-20T05:28:26;94845.50;;;26.88;51.70
34742;BME280;20968;42.696;23.360;2022-08-20T05:30:57;94841.34;;;26.98;51.27
34742;BME280;20968;42.696;23.360;2022-08-20T05:33:22;94842.41;;;27.12;51.41
34742;BME280;20968;42.696;23.360;2022-08-20T05:35:49;94838.50;;;27.27;51.71
34742;BME280;20968;42.696;23.360;2022-08-20T05:38:19;94828.84;;;27.30;50.90
34742;BME280;20968;42.696;23.360;2022-08-20T05:40:45;94847.16;;;27.00;50.76
34742;BME280;20968;42.696;23.360;2022-08-20T05:43:15;94831.50;;;26.90;51.00
34742;BME280;20968;42.696;23.360;2022-08-20T05:45:44;94839.44;;;27.01;51.60
34742;BME280;20968;42.696;23.360;2022-08-20T05:48:16;94833.94;;;27.03;51.60
34742;BME280;20968;42.696;23.360;2022-08-20T05:50:44;94834.81;;;27.15;51.51
34742;BME280;20968;42.696;23.360;2022-08-20T05:53:10;94832.56;;;27.23;51.46
34742;BME280;20968;42.696;23.360;2022-08-20T05:55:37;94835.09;;;27.38;51.16
34742;BME280;20968;42.696;23.360;2022-08-20T05:58:05;94829.09;;;27.53;50.86
34742;BME280;20968;42.696;23.360;2022-08-20T06:00:32;94835.97;;;27.68;50.82
34742;BME280;20968;42.696;23.360;2022-08-20T06:03:04;94822.38;;;27.76;50.28
34742;BME280;20968;42.696;23.360;2022-08-20T06:06:21;94829.50;;;27.87;50.02
34742;BME280;20968;42.696;23.360;2022-08-20T06:08:49;94811.16;;;27.88;50.57
34742;BME280;20968;42.696;23.360;2022-08-20T06:11:16;94813.34;;;27.99;50.25
34742;BME280;20968;42.696;23.360;2022-08-20T06:19:50;94818.38;;;27.70;50.58
34742;BME280;20968;42.696;23.360;2022-08-20T06:22:15;94823.66;;;27.94;50.50
34742;BME280;20968;42.696;23.360;2022-08-20T06:24:41;94834.28;;;27.84;50.03
34742;BME280;20968;42.696;23.360;2022-08-20T06:27:06;94828.59;;;27.94;50.71
34742;BME280;20968;42.696;23.360;2022-08-20T06:29:32;94830.44;;;28.10;50.99
34742;BME280;20968;42.696;23.360;2022-08-20T06:31:58;94831.75;;;28.28;49.67
34742;BME280;20968;42.696;23.360;2022-08-20T06:34:23;94834.19;;;28.43;49.12
34742;BME280;20968;42.696;23.360;2022-08-20T06:36:53;94834.84;;;28.62;49.38
34742;BME280;20968;42.696;23.360;2022-08-20T06:39:18;94822.69;;;28.71;48.88
34742;BME280;20968;42.696;23.360;2022-08-20T06:41:44;94822.88;;;28.94;48.57
34742;BME280;20968;42.696;23.360;2022-08-20T06:44:09;94829.16;;;28.93;47.76
34742;BME280;20968;42.696;23.360;2022-08-20T06:46:36;94822.97;;;29.17;48.28
34742;BME280;20968;42.696;23.360;2022-08-20T06:49:03;94822.25;;;29.37;47.53
34742;BME280;20968;42.696;23.360;2022-08-20T06:51:29;94814.25;;;29.24;48.82
34742;BME280;20968;42.696;23.360;2022-08-20T06:53:55;94814.13;;;29.22;48.37
34742;BME280;20968;42.696;23.360;2022-08-20T06:56:21;94812.63;;;29.21;48.80
34742;BME280;20968;42.696;23.360;2022-08-20T06:58:47;94811.28;;;29.22;48.59
34742;BME280;20968;42.696;23.360;2022-08-20T07:01:14;94808.91;;;29.40;48.17
34742;BME280;20968;42.696;23.360;2022-08-20T07:03:40;94811.66;;;29.49;48.75
34742;BME280;20968;42.696;23.360;2022-08-20T07:15:24;94800.63;;;29.76;46.21
34742;BME280;20968;42.696;23.360;2022-08-20T07:17:55;94799.13;;;29.75;46.18
34742;BME280;20968;42.696;23.360;2022-08-20T07:20:22;94797.19;;;29.89;45.15
34742;BME280;20968;42.696;23.360;2022-08-20T07:22:47;94800.69;;;30.10;45.85
34742;BME280;20968;42.696;23.360;2022-08-20T07:25:14;94798.72;;;30.13;45.48
34742;BME280;20968;42.696;23.360;2022-08-20T07:27:41;94798.09;;;30.03;45.48
34742;BME280;20968;42.696;23.360;2022-08-20T07:30:11;94784.47;;;29.90;45.61
34742;BME280;20968;42.696;23.360;2022-08-20T07:32:55;94781.91;;;30.17;45.83
34742;BME280;20968;42.696;23.360;2022-08-20T07:35:21;94787.44;;;30.38;45.47
34742;BME280;20968;42.696;23.360;2022-08-20T07:37:49;94788.94;;;30.39;46.06
34742;BME280;20968;42.696;23.360;2022-08-20T07:40:23;94793.75;;;30.59;45.51
34742;BME280;20968;42.696;23.360;2022-08-20T07:42:54;94784.09;;;30.64;45.03
34742;BME280;20968;42.696;23.360;2022-08-20T07:45:21;94790.56;;;30.65;45.27
34742;BME280;20968;42.696;23.360;2022-08-20T07:47:47;94784.03;;;30.51;44.84
34742;BME280;20968;42.696;23.360;2022-08-20T07:50:16;94775.97;;;30.59;45.06
34742;BME280;20968;42.696;23.360;2022-08-20T07:52:43;94779.84;;;30.88;43.58
34742;BME280;20968;42.696;23.360;2022-08-20T07:55:11;94790.25;;;30.83;44.92
34742;BME280;20968;42.696;23.360;2022-08-20T07:57:37;94783.31;;;30.86;43.31
34742;BME280;20968;42.696;23.360;2022-08-20T08:00:04;94783.56;;;31.02;43.84
34742;BME280;20968;42.696;23.360;2022-08-20T08:02:32;94775.88;;;31.29;42.69
34742;BME280;20968;42.696;23.360;2022-08-20T08:04:58;94779.78;;;31.47;43.80
34742;BME280;20968;42.696;23.360;2022-08-20T08:07:24;94785.03;;;31.64;42.97
34742;BME280;20968;42.696;23.360;2022-08-20T08:09:50;94793.94;;;31.70;42.06
34742;BME280;20968;42.696;23.360;2022-08-20T08:12:16;94783.25;;;31.70;41.81
34742;BME280;20968;42.696;23.360;2022-08-20T08:14:43;94784.34;;;31.77;43.03
34742;BME280;20968;42.696;23.360;2022-08-20T08:17:10;94784.06;;;31.84;41.77
34742;BME280;20968;42.696;23.360;2022-08-20T08:19:42;94788.31;;;31.97;41.44
34742;BME280;20968;42.696;23.360;2022-08-20T08:22:10;94780.09;;;32.03;41.36
34742;BME280;20968;42.696;23.360;2022-08-20T08:24:38;94778.28;;;31.96;41.16
34742;BME280;20968;42.696;23.360;2022-08-20T08:27:04;94767.97;;;32.16;40.82
34742;BME280;20968;42.696;23.360;2022-08-20T08:29:29;94775.38;;;32.07;41.01
34742;BME280;20968;42.696;23.360;2022-08-20T08:31:55;94774.75;;;32.36;41.45
34742;BME280;20968;42.696;23.360;2022-08-20T08:34:21;94769.56;;;32.32;39.95
34742;BME280;20968;42.696;23.360;2022-08-20T08:36:49;94769.28;;;32.40;42.03
34742;BME280;20968;42.696;23.360;2022-08-20T08:39:15;94765.13;;;32.56;40.52
34742;BME280;20968;42.696;23.360;2022-08-20T08:41:43;94760.00;;;32.66;39.02
34742;BME280;20968;42.696;23.360;2022-08-20T08:44:17;94764.72;;;32.88;39.57
34742;BME280;20968;42.696;23.360;2022-08-20T08:46:49;94755.84;;;32.82;39.93
34742;BME280;20968;42.696;23.360;2022-08-20T08:49:19;94755.22;;;32.84;39.22
34742;BME280;20968;42.696;23.360;2022-08-20T08:51:50;94747.56;;;32.88;39.26
34742;BME280;20968;42.696;23.360;2022-08-20T08:54:21;94748.75;;;32.97;39.11
34742;BME280;20968;42.696;23.360;2022-08-20T08:56:48;94753.06;;;33.11;38.73
34742;BME280;20968;42.696;23.360;2022-08-20T08:59:19;94749.47;;;32.97;38.05
34742;BME280;20968;42.696;23.360;2022-08-20T09:01:48;94736.47;;;33.08;38.47
34742;BME280;20968;42.696;23.360;2022-08-20T09:04:17;94732.22;;;33.09;38.37
34742;BME280;20968;42.696;23.360;2022-08-20T09:06:43;94741.13;;;33.01;38.12
34742;BME280;20968;42.696;23.360;2022-08-20T09:09:22;94729.88;;;33.05;38.26
34742;BME280;20968;42.696;23.360;2022-08-20T09:11:52;94735.03;;;33.22;37.20
34742;BME280;20968;42.696;23.360;2022-08-20T09:14:19;94732.78;;;33.34;37.71
34742;BME280;20968;42.696;23.360;2022-08-20T09:16:44;94738.31;;;33.30;37.16
34742;BME280;20968;42.696;23.360;2022-08-20T09:19:10;94735.00;;;33.35;37.48
34742;BME280;20968;42.696;23.360;2022-08-20T09:21:36;94739.13;;;33.32;37.66
34742;BME280;20968;42.696;23.360;2022-08-20T09:24:01;94740.84;;;33.53;37.68
34742;BME280;20968;42.696;23.360;2022-08-20T09:26:27;94738.50;;;33.63;36.84
34742;BME280;20968;42.696;23.360;2022-08-20T09:28:52;94727.16;;;33.65;36.61
34742;BME280;20968;42.696;23.360;2022-08-20T09:31:27;94726.91;;;33.90;36.59
34742;BME280;20968;42.696;23.360;2022-08-20T09:34:02;94735.97;;;34.00;37.72
34742;BME280;20968;42.696;23.360;2022-08-20T09:36:27;94726.72;;;34.01;36.22
34742;BME280;20968;42.696;23.360;2022-08-20T09:38:53;94716.13;;;34.04;36.19
34742;BME280;20968;42.696;23.360;2022-08-20T09:41:18;94714.63;;;34.03;36.23
34742;BME280;20968;42.696;23.360;2022-08-20T09:43:44;94720.94;;;34.14;36.32
34742;BME280;20968;42.696;23.360;2022-08-20T09:46:09;94718.41;;;34.53;36.75
34742;BME280;20968;42.696;23.360;2022-08-20T09:48:35;94713.84;;;34.79;35.51
34742;BME280;20968;42.696;23.360;2022-08-20T09:51:00;94704.44;;;35.09;34.83
34742;BME280;20968;42.696;23.360;2022-08-20T09:53:26;94710.00;;;34.73;35.30
34742;BME280;20968;42.696;23.360;2022-08-20T09:55:53;94708.94;;;34.82;34.37
34742;BME280;20968;42.696;23.360;2022-08-20T09:58:36;94712.34;;;34.78;33.84
34742;BME280;20968;42.696;23.360;2022-08-20T10:01:24;94707.97;;;34.92;33.83
34742;BME280;20968;42.696;23.360;2022-08-20T10:03:50;94709.53;;;34.95;34.47
34742;BME280;20968;42.696;23.360;2022-08-20T10:06:17;94718.63;;;34.90;34.41
34742;BME280;20968;42.696;23.360;2022-08-20T10:08:44;94712.56;;;34.99;33.77
34742;BME280;20968;42.696;23.360;2022-08-20T10:11:25;94710.25;;;35.29;34.67
34742;BME280;20968;42.696;23.360;2022-08-20T10:13:50;94705.97;;;35.12;34.12
34742;BME280;20968;42.696;23.360;2022-08-20T10:16:16;94712.22;;;35.24;34.46
34742;BME280;20968;42.696;23.360;2022-08-20T10:18:41;94698.06;;;35.63;35.09
34742;BME280;20968;42.696;23.360;2022-08-20T10:21:10;94702.81;;;35.93;33.52
34742;BME280;20968;42.696;23.360;2022-08-20T10:23:36;94691.34;;;35.93;33.18
34742;BME280;20968;42.696;23.360;2022-08-20T10:26:01;94694.16;;;35.91;32.82
34742;BME280;20968;42.696;23.360;2022-08-20T10:28:27;94694.75;;;35.71;33.86
34742;BME280;20968;42.696;23.360;2022-08-20T10:30:52;94689.78;;;35.71;32.76
34742;BME280;20968;42.696;23.360;2022-08-20T10:33:17;94691.50;;;35.61;33.16
34742;BME280;20968;42.696;23.360;2022-08-20T10:35:44;94689.81;;;35.73;33.60
34742;BME280;20968;42.696;23.360;2022-08-20T10:38:09;94687.94;;;35.79;33.12
34742;BME280;20968;42.696;23.360;2022-08-20T10:40:34;94679.50;;;35.83;32.06
34742;BME280;20968;42.696;23.360;2022-08-20T10:43:00;94680.38;;;35.88;31.81
34742;BME280;20968;42.696;23.360;2022-08-20T10:45:26;94687.22;;;35.79;32.20
34742;BME280;20968;42.696;23.360;2022-08-20T10:47:51;94678.81;;;35.85;32.25
34742;BME280;20968;42.696;23.360;2022-08-20T10:50:17;94670.50;;;35.73;32.37
34742;BME280;20968;42.696;23.360;2022-08-20T10:52:44;94678.78;;;35.66;32.00
34742;BME280;20968;42.696;23.360;2022-08-20T10:55:10;94675.28;;;35.50;33.91
34742;BME280;20968;42.696;23.360;2022-08-20T10:57:37;94672.59;;;35.54;32.79
34742;BME280;20968;42.696;23.360;2022-08-20T11:00:04;94672.25;;;35.28;33.46
34742;BME280;20968;42.696;23.360;2022-08-20T11:02:31;94665.19;;;34.96;34.06
34742;BME280;20968;42.696;23.360;2022-08-20T11:04:57;94658.78;;;34.98;34.14
34742;BME280;20968;42.696;23.360;2022-08-20T11:07:29;94668.59;;;34.76;34.04
34742;BME280;20968;42.696;23.360;2022-08-20T11:09:55;94663.59;;;34.43;34.49
34742;BME280;20968;42.696;23.360;2022-08-20T11:12:21;94669.56;;;34.49;35.41
34742;BME280;20968;42.696;23.360;2022-08-20T11:14:47;94659.44;;;34.46;35.46
34742;BME280;20968;42.696;23.360;2022-08-20T11:17:31;94655.75;;;34.44;35.54
34742;BME280;20968;42.696;23.360;2022-08-20T11:19:58;94649.75;;;34.38;35.16
34742;BME280;20968;42.696;23.360;2022-08-20T11:22:24;94646.47;;;34.28;33.71
34742;BME280;20968;42.696;23.360;2022-08-20T11:24:50;94648.44;;;34.41;33.84
34742;BME280;20968;42.696;23.360;2022-08-20T11:27:23;94643.53;;;34.43;35.28
34742;BME280;20968;42.696;23.360;2022-08-20T11:29:50;94637.50;;;34.53;34.16
34742;BME280;20968;42.696;23.360;2022-08-20T11:32:16;94638.28;;;34.38;34.25
34742;BME280;20968;42.696;23.360;2022-08-20T11:34:42;94615.09;;;33.99;34.48
34742;BME280;20968;42.696;23.360;2022-08-20T11:37:08;94617.53;;;33.89;33.92
34742;BME280;20968;42.696;23.360;2022-08-20T11:39:34;94617.25;;;33.68;34.05
34742;BME280;20968;42.696;23.360;2022-08-20T11:41:59;94606.53;;;33.68;35.29
34742;BME280;20968;42.696;23.360;2022-08-20T11:44:25;94606.28;;;33.62;34.54
34742;BME280;20968;42.696;23.360;2022-08-20T11:46:51;94606.28;;;33.62;34.79
34742;BME280;20968;42.696;23.360;2022-08-20T11:49:16;94610.75;;;33.52;34.72
34742;BME280;20968;42.696;23.360;2022-08-20T11:51:42;94603.13;;;33.41;35.11
34742;BME280;20968;42.696;23.360;2022-08-20T11:54:07;94611.59;;;33.39;34.88
34742;BME280;20968;42.696;23.360;2022-08-20T11:56:33;94609.28;;;33.35;34.42
34742;BME280;20968;42.696;23.360;2022-08-20T11:58:58;94607.31;;;33.25;34.41
34742;BME280;20968;42.696;23.360;2022-08-20T12:01:24;94604.03;;;33.30;34.80
34742;BME280;20968;42.696;23.360;2022-08-20T12:03:49;94604.84;;;33.32;34.01
34742;BME280;20968;42.696;23.360;2022-08-20T12:06:17;94601.81;;;33.28;34.37
34742;BME280;20968;42.696;23.360;2022-08-20T12:08:42;94599.28;;;33.06;34.21
34742;BME280;20968;42.696;23.360;2022-08-20T12:11:08;94596.47;;;32.92;34.45
34742;BME280;20968;42.696;23.360;2022-08-20T12:13:35;94597.94;;;32.93;34.69
34742;BME280;20968;42.696;23.360;2022-08-20T12:16:01;94608.81;;;32.97;34.98
34742;BME280;20968;42.696;23.360;2022-08-20T12:18:27;94607.69;;;32.88;35.38
34742;BME280;20968;42.696;23.360;2022-08-20T12:20:53;94612.78;;;32.90;35.31
34742;BME280;20968;42.696;23.360;2022-08-20T12:23:19;94607.22;;;32.78;36.00
34742;BME280;20968;42.696;23.360;2022-08-20T12:25:44;94609.97;;;32.76;36.05
34742;BME280;20968;42.696;23.360;2022-08-20T12:28:14;94614.00;;;32.71;36.40
34742;BME280;20968;42.696;23.360;2022-08-20T12:30:40;94614.19;;;32.75;36.72
34742;BME280;20968;42.696;23.360;2022-08-20T12:33:05;94611.03;;;32.69;36.55
34742;BME280;20968;42.696;23.360;2022-08-20T12:35:31;94613.31;;;32.57;37.30
34742;BME280;20968;42.696;23.360;2022-08-20T12:37:57;94623.75;;;32.53;37.50
34742;BME280;20968;42.696;23.360;2022-08-20T12:40:25;94618.06;;;32.40;38.31
34742;BME280;20968;42.696;23.360;2022-08-20T12:42:51;94625.16;;;32.25;41.12
34742;BME280;20968;42.696;23.360;2022-08-20T12:45:17;94629.94;;;32.21;41.91
34742;BME280;20968;42.696;23.360;2022-08-20T12:47:44;94631.91;;;32.05;45.09
34742;BME280;20968;42.696;23.360;2022-08-20T12:50:22;94652.19;;;31.84;53.68
34742;BME280;20968;42.696;23.360;2022-08-20T12:52:48;94654.16;;;31.16;51.75
34742;BME280;20968;42.696;23.360;2022-08-20T12:55:17;94649.13;;;30.31;55.02
34742;BME280;20968;42.696;23.360;2022-08-20T12:57:51;94655.75;;;29.76;55.02
34742;BME280;20968;42.696;23.360;2022-08-20T13:00:18;94630.38;;;29.34;59.92
34742;BME280;20968;42.696;23.360;2022-08-20T13:02:46;94618.31;;;28.79;58.89
34742;BME280;20968;42.696;23.360;2022-08-20T13:05:12;94599.78;;;28.66;58.16
34742;BME280;20968;42.696;23.360;2022-08-20T13:07:39;94587.25;;;28.48;58.67
34742;BME280;20968;42.696;23.360;2022-08-20T13:10:07;94586.97;;;28.44;58.05
34742;BME280;20968;42.696;23.360;2022-08-20T13:12:33;94577.50;;;28.40;59.19
34742;BME280;20968;42.696;23.360;2022-08-20T13:14:59;94571.94;;;28.42;60.62
34742;BME280;20968;42.696;23.360;2022-08-20T13:17:24;94566.84;;;28.73;64.39
34742;BME280;20968;42.696;23.360;2022-08-20T13:19:53;94576.16;;;28.85;67.81
34742;BME280;20968;42.696;23.360;2022-08-20T13:22:18;94573.94;;;28.83;65.70
34742;BME280;20968;42.696;23.360;2022-08-20T13:24:44;94580.66;;;28.67;65.88
34742;BME280;20968;42.696;23.360;2022-08-20T13:27:14;94596.25;;;28.45;66.73